sensor_id;sensor_type;location;lat;lon;timestamp;temperature;humidity
5901;DHT22;2976;49.764;9.796;2023-06-14T00:00:38;14.70;90.70
5901;DHT22;2976;49.764;9.796;2023-06-14T00:03:08;14.70;90.90
5901;DHT22;2976;49.764;9.796;2023-06-14T00:05:38;14.60;90.90
5901;DHT22;2976;49.764;9.796;2023-06-14T00:08:07;14.60;92.20
5901;DHT22;2976;49.764;9.796;2023-06-14T00:10:35;14.50;93.00
5901;DHT22;2976;49.764;9.796;2023-06-14T00:13:04;14.40;94.10
5901;DHT22;2976;49.764;9.796;2023-06-14T00:15:33;14.30;94.40
5901;DHT22;2976;49.764;9.796;2023-06-14T00:17:59;14.20;95.70
5901;DHT22;2976;49.764;9.796;2023-06-14T00:20:28;14.00;96.90
5901;DHT22;2976;49.764;9.796;2023-06-14T00:22:54;13.90;97.40
5901;DHT22;2976;49.764;9.796;2023-06-14T00:25:23;13.80;98.40
5901;DHT22;2976;49.764;9.796;2023-06-14T00:27:53;13.60;99.80
5901;DHT22;2976;49.764;9.796;2023-06-14T00:30:19;13.50;99.90
5901;DHT22;2976;49.764;9.796;2023-06-14T00:32:45;13.50;99.90
5901;DHT22;2976;49.764;9.796;2023-06-14T00:35:10;13.50;99.10
5901;DHT22;2976;49.764;9.796;2023-06-14T00:37:36;13.50;99.50
5901;DHT22;2976;49.764;9.796;2023-06-14T00:40:03;13.40;99.40
5901;DHT22;2976;49.764;9.796;2023-06-14T00:42:30;13.40;99.20
5901;DHT22;2976;49.764;9.796;2023-06-14T00:44:56;13.70;97.20
5901;DHT22;2976;49.764;9.796;2023-06-14T00:47:21;13.70;96.80
5901;DHT22;2976;49.764;9.796;2023-06-14T00:49:48;13.70;97.20
5901;DHT22;2976;49.764;9.796;2023-06-14T00:52:15;13.70;98.00
5901;DHT22;2976;49.764;9.796;2023-06-14T00:54:41;13.80;96.50
5901;DHT22;2976;49.764;9.796;2023-06-14T00:57:08;13.90;96.10
5901;DHT22;2976;49.764;9.796;2023-06-14T00:59:38;13.90;96.20
5901;DHT22;2976;49.764;9.796;2023-06-14T01:02:06;13.90;96.50
5901;DHT22;2976;49.764;9.796;2023-06-14T01:04:31;13.70;97.70
5901;DHT22;2976;49.764;9.796;2023-06-14T01:07:02;13.50;99.20
5901;DHT22;2976;49.764;9.796;2023-06-14T01:12:44;13.10;99.90
5901;DHT22;2976;49.764;9.796;2023-06-14T01:15:14;12.90;99.90
5901;DHT22;2976;49.764;9.796;2023-06-14T01:17:41;12.80;99.90
5901;DHT22;2976;49.764;9.796;2023-06-14T01:20:11;13.00;99.90
5901;DHT22;2976;49.764;9.796;2023-06-14T01:22:51;12.90;99.90
5901;DHT22;2976;49.764;9.796;2023-06-14T01:25:18;12.80;99.90
5901;DHT22;2976;49.764;9.796;2023-06-14T01:27:48;12.70;99.90
5901;DHT22;2976;49.764;9.796;2023-06-14T01:30:15;12.60;99.90
5901;DHT22;2976;49.764;9.796;2023-06-14T01:32:41;12.60;99.90
5901;DHT22;2976;49.764;9.796;2023-06-14T01:35:07;12.60;99.90
5901;DHT22;2976;49.764;9.796;2023-06-14T01:37:33;12.50;99.90
5901;DHT22;2976;49.764;9.796;2023-06-14T01:39:59;12.50;99.90
5901;DHT22;2976;49.764;9.796;2023-06-14T01:42:25;12.40;99.90
5901;DHT22;2976;49.764;9.796;2023-06-14T01:44:53;12.40;99.90
5901;DHT22;2976;49.764;9.796;2023-06-14T01:47:20;12.30;99.90
5901;DHT22;2976;49.764;9.796;2023-06-14T01:49:46;12.40;99.90
5901;DHT22;2976;49.764;9.796;2023-06-14T01:52:12;12.40;99.90
5901;DHT22;2976;49.764;9.796;2023-06-14T01:54:38;12.30;99.90
5901;DHT22;2976;49.764;9.796;2023-06-14T01:57:08;12.30;99.90
5901;DHT22;2976;49.764;9.796;2023-06-14T01:59:34;12.20;99.90
5901;DHT22;2976;49.764;9.796;2023-06-14T02:02:02;12.20;99.90
5901;DHT22;2976;49.764;9.796;2023-06-14T02:04:27;12.20;99.90
5901;DHT22;2976;49.764;9.796;2023-06-14T02:06:53;12.20;99.90
5901;DHT22;2976;49.764;9.796;2023-06-14T02:09:18;12.40;99.90
5901;DHT22;2976;49.764;9.796;2023-06-14T02:11:44;12.50;99.90
5901;DHT22;2976;49.764;9.796;2023-06-14T02:14:10;12.50;99.90
5901;DHT22;2976;49.764;9.796;2023-06-14T02:16:37;12.50;99.90
5901;DHT22;2976;49.764;9.796;2023-06-14T02:19:07;12.60;99.90
5901;DHT22;2976;49.764;9.796;2023-06-14T02:21:32;12.60;99.90
5901;DHT22;2976;49.764;9.796;2023-06-14T02:23:58;12.50;99.90
5901;DHT22;2976;49.764;9.796;2023-06-14T02:26:23;12.50;99.90
5901;DHT22;2976;49.764;9.796;2023-06-14T02:28:49;12.50;99.90
5901;DHT22;2976;49.764;9.796;2023-06-14T02:31:15;12.50;99.90
5901;DHT22;2976;49.764;9.796;2023-06-14T02:33:41;12.70;99.90
5901;DHT22;2976;49.764;9.796;2023-06-14T02:36:07;12.60;99.90
5901;DHT22;2976;49.764;9.796;2023-06-14T02:38:32;12.60;99.90
5901;DHT22;2976;49.764;9.796;2023-06-14T02:40:58;12.60;99.90
5901;DHT22;2976;49.764;9.796;2023-06-14T02:43:25;12.50;99.90
5901;DHT22;2976;49.764;9.796;2023-06-14T02:45:51;12.50;99.90
5901;DHT22;2976;49.764;9.796;2023-06-14T02:48:17;12.50;99.90
5901;DHT22;2976;49.764;9.796;2023-06-14T02:50:42;12.30;99.90
5901;DHT22;2976;49.764;9.796;2023-06-14T02:53:08;12.20;99.90
5901;DHT22;2976;49.764;9.796;2023-06-14T02:55:34;12.10;99.90
5901;DHT22;2976;49.764;9.796;2023-06-14T02:58:05;12.00;99.90
5901;DHT22;2976;49.764;9.796;2023-06-14T03:00:30;11.90;99.90
5901;DHT22;2976;49.764;9.796;2023-06-14T03:02:56;11.90;99.90
5901;DHT22;2976;49.764;9.796;2023-06-14T03:05:22;12.00;99.90
5901;DHT22;2976;49.764;9.796;2023-06-14T03:07:48;12.10;99.90
5901;DHT22;2976;49.764;9.796;2023-06-14T03:10:16;12.30;99.90
5901;DHT22;2976;49.764;9.796;2023-06-14T03:12:41;12.30;99.90
5901;DHT22;2976;49.764;9.796;2023-06-14T03:15:07;12.40;99.90
5901;DHT22;2976;49.764;9.796;2023-06-14T03:17:34;12.50;99.90
5901;DHT22;2976;49.764;9.796;2023-06-14T03:20:01;12.50;99.90
5901;DHT22;2976;49.764;9.796;2023-06-14T03:22:26;12.60;99.90
5901;DHT22;2976;49.764;9.796;2023-06-14T03:24:52;12.60;99.90
5901;DHT22;2976;49.764;9.796;2023-06-14T03:27:19;12.70;99.90
5901;DHT22;2976;49.764;9.796;2023-06-14T03:29:45;12.60;99.90
5901;DHT22;2976;49.764;9.796;2023-06-14T03:32:11;12.60;99.90
5901;DHT22;2976;49.764;9.796;2023-06-14T03:34:36;12.60;99.90
5901;DHT22;2976;49.764;9.796;2023-06-14T03:37:04;12.50;99.90
5901;DHT22;2976;49.764;9.796;2023-06-14T03:39:30;12.40;99.90
5901;DHT22;2976;49.764;9.796;2023-06-14T03:41:55;12.40;99.90
5901;DHT22;2976;49.764;9.796;2023-06-14T03:44:21;12.60;99.90
5901;DHT22;2976;49.764;9.796;2023-06-14T03:46:46;12.60;99.90
5901;DHT22;2976;49.764;9.796;2023-06-14T03:49:12;12.70;99.90
5901;DHT22;2976;49.764;9.796;2023-06-14T03:51:38;12.70;99.90
5901;DHT22;2976;49.764;9.796;2023-06-14T03:54:06;12.70;99.90
5901;DHT22;2976;49.764;9.796;2023-06-14T03:56:32;12.70;99.90
5901;DHT22;2976;49.764;9.796;2023-06-14T03:58:57;12.70;99.90
5901;DHT22;2976;49.764;9.796;2023-06-14T04:01:23;12.70;99.90
5901;DHT22;2976;49.764;9.796;2023-06-14T04:03:55;12.60;99.90
5901;DHT22;2976;49.764;9.796;2023-06-14T04:06:21;12.60;99.90
5901;DHT22;2976;49.764;9.796;2023-06-14T04:08:46;12.50;99.90
5901;DHT22;2976;49.764;9.796;2023-06-14T04:11:15;12.50;99.90
5901;DHT22;2976;49.764;9.796;2023-06-14T04:13:40;12.60;99.90
5901;DHT22;2976;49.764;9.796;2023-06-14T04:16:06;12.70;99.90
5901;DHT22;2976;49.764;9.796;2023-06-14T04:18:31;12.80;99.90
5901;DHT22;2976;49.764;9.796;2023-06-14T04:20:57;13.40;99.90
5901;DHT22;2976;49.764;9.796;2023-06-14T04:23:22;14.40;99.90
5901;DHT22;2976;49.764;9.796;2023-06-14T04:25:48;15.30;95.90
5901;DHT22;2976;49.764;9.796;2023-06-14T04:28:15;16.10;93.30
5901;DHT22;2976;49.764;9.796;2023-06-14T04:30:41;16.80;90.60
5901;DHT22;2976;49.764;9.796;2023-06-14T04:33:07;17.20;89.00
5901;DHT22;2976;49.764;9.796;2023-06-14T04:35:33;17.80;86.50
5901;DHT22;2976;49.764;9.796;2023-06-14T04:38:01;18.30;85.00
5901;DHT22;2976;49.764;9.796;2023-06-14T04:40:30;18.80;81.70
5901;DHT22;2976;49.764;9.796;2023-06-14T04:42:55;19.20;79.30
5901;DHT22;2976;49.764;9.796;2023-06-14T04:45:21;19.50;78.30
5901;DHT22;2976;49.764;9.796;2023-06-14T04:47:47;19.90;76.90
5901;DHT22;2976;49.764;9.796;2023-06-14T04:50:13;20.40;75.50
5901;DHT22;2976;49.764;9.796;2023-06-14T04:52:39;20.30;75.50
5901;DHT22;2976;49.764;9.796;2023-06-14T04:55:04;20.20;75.80
5901;DHT22;2976;49.764;9.796;2023-06-14T04:57:31;20.30;75.20
5901;DHT22;2976;49.764;9.796;2023-06-14T04:59:57;19.90;76.50
5901;DHT22;2976;49.764;9.796;2023-06-14T05:02:23;19.50;77.00
5901;DHT22;2976;49.764;9.796;2023-06-14T05:04:49;19.50;78.40
5901;DHT22;2976;49.764;9.796;2023-06-14T05:07:15;19.20;78.70
5901;DHT22;2976;49.764;9.796;2023-06-14T05:09:41;19.20;78.70
5901;DHT22;2976;49.764;9.796;2023-06-14T05:12:06;19.40;78.40
5901;DHT22;2976;49.764;9.796;2023-06-14T05:14:36;19.60;77.40
5901;DHT22;2976;49.764;9.796;2023-06-14T05:17:01;19.40;78.00
5901;DHT22;2976;49.764;9.796;2023-06-14T05:19:28;19.00;79.70
5901;DHT22;2976;49.764;9.796;2023-06-14T05:21:53;19.40;78.60
5901;DHT22;2976;49.764;9.796;2023-06-14T05:24:19;19.80;77.50
5901;DHT22;2976;49.764;9.796;2023-06-14T05:26:46;19.90;77.00
5901;DHT22;2976;49.764;9.796;2023-06-14T05:29:12;20.20;76.60
5901;DHT22;2976;49.764;9.796;2023-06-14T05:31:38;20.20;76.20
5901;DHT22;2976;49.764;9.796;2023-06-14T05:34:04;20.60;75.60
5901;DHT22;2976;49.764;9.796;2023-06-14T05:36:29;20.60;74.60
5901;DHT22;2976;49.764;9.796;2023-06-14T05:38:55;20.50;74.10
5901;DHT22;2976;49.764;9.796;2023-06-14T05:41:26;20.60;74.10
5901;DHT22;2976;49.764;9.796;2023-06-14T05:43:52;20.40;74.70
5901;DHT22;2976;49.764;9.796;2023-06-14T05:46:18;20.60;75.60
5901;DHT22;2976;49.764;9.796;2023-06-14T05:48:48;20.70;74.20
5901;DHT22;2976;49.764;9.796;2023-06-14T05:51:13;21.10;73.40
5901;DHT22;2976;49.764;9.796;2023-06-14T05:53:40;21.30;72.70
5901;DHT22;2976;49.764;9.796;2023-06-14T05:56:05;21.10;73.70
5901;DHT22;2976;49.764;9.796;2023-06-14T05:58:31;21.00;72.30
5901;DHT22;2976;49.764;9.796;2023-06-14T06:00:56;20.80;73.00
5901;DHT22;2976;49.764;9.796;2023-06-14T06:03:23;21.00;72.90
5901;DHT22;2976;49.764;9.796;2023-06-14T06:05:48;20.80;73.20
5901;DHT22;2976;49.764;9.796;2023-06-14T06:08:14;21.50;71.90
5901;DHT22;2976;49.764;9.796;2023-06-14T06:10:42;21.90;71.10
5901;DHT22;2976;49.764;9.796;2023-06-14T06:13:07;21.90;71.00
5901;DHT22;2976;49.764;9.796;2023-06-14T06:15:33;21.80;71.00
5901;DHT22;2976;49.764;9.796;2023-06-14T06:17:58;21.40;71.30
5901;DHT22;2976;49.764;9.796;2023-06-14T06:20:24;20.90;72.60
5901;DHT22;2976;49.764;9.796;2023-06-14T06:22:53;21.00;72.50
5901;DHT22;2976;49.764;9.796;2023-06-14T06:25:19;20.60;73.40
5901;DHT22;2976;49.764;9.796;2023-06-14T06:27:45;20.50;74.30
5901;DHT22;2976;49.764;9.796;2023-06-14T06:30:11;20.80;73.30
5901;DHT22;2976;49.764;9.796;2023-06-14T06:32:36;21.00;73.50
5901;DHT22;2976;49.764;9.796;2023-06-14T06:35:02;21.00;73.60
5901;DHT22;2976;49.764;9.796;2023-06-14T06:37:31;21.30;73.00
5901;DHT22;2976;49.764;9.796;2023-06-14T06:39:57;21.30;72.60
5901;DHT22;2976;49.764;9.796;2023-06-14T06:42:22;21.60;72.80
5901;DHT22;2976;49.764;9.796;2023-06-14T06:44:48;21.20;72.30
5901;DHT22;2976;49.764;9.796;2023-06-14T06:47:13;21.20;72.10
5901;DHT22;2976;49.764;9.796;2023-06-14T06:49:39;21.00;73.30
5901;DHT22;2976;49.764;9.796;2023-06-14T06:52:06;21.30;73.10
5901;DHT22;2976;49.764;9.796;2023-06-14T06:54:32;21.40;72.60
5901;DHT22;2976;49.764;9.796;2023-06-14T06:56:58;21.80;71.80
5901;DHT22;2976;49.764;9.796;2023-06-14T06:59:24;22.00;71.10
5901;DHT22;2976;49.764;9.796;2023-06-14T07:01:50;21.90;71.00
5901;DHT22;2976;49.764;9.796;2023-06-14T07:04:15;21.60;71.20
5901;DHT22;2976;49.764;9.796;2023-06-14T07:06:42;21.60;72.40
5901;DHT22;2976;49.764;9.796;2023-06-14T07:09:08;21.70;71.50
5901;DHT22;2976;49.764;9.796;2023-06-14T07:11:41;21.40;72.10
5901;DHT22;2976;49.764;9.796;2023-06-14T07:14:07;21.20;72.30
5901;DHT22;2976;49.764;9.796;2023-06-14T07:16:33;21.00;73.60
5901;DHT22;2976;49.764;9.796;2023-06-14T07:18:58;21.00;73.80
5901;DHT22;2976;49.764;9.796;2023-06-14T07:21:24;21.60;72.70
5901;DHT22;2976;49.764;9.796;2023-06-14T07:23:52;22.30;70.70
5901;DHT22;2976;49.764;9.796;2023-06-14T07:26:18;22.20;69.50
5901;DHT22;2976;49.764;9.796;2023-06-14T07:28:43;21.70;71.20
5901;DHT22;2976;49.764;9.796;2023-06-14T07:31:10;21.50;72.20
5901;DHT22;2976;49.764;9.796;2023-06-14T07:33:36;21.70;72.00
5901;DHT22;2976;49.764;9.796;2023-06-14T07:36:02;21.80;71.90
5901;DHT22;2976;49.764;9.796;2023-06-14T07:38:28;21.40;72.60
5901;DHT22;2976;49.764;9.796;2023-06-14T07:40:53;21.70;71.70
5901;DHT22;2976;49.764;9.796;2023-06-14T07:43:19;21.80;71.10
5901;DHT22;2976;49.764;9.796;2023-06-14T07:45:45;21.80;70.70
5901;DHT22;2976;49.764;9.796;2023-06-14T07:48:11;22.00;71.20
5901;DHT22;2976;49.764;9.796;2023-06-14T07:50:36;21.70;70.40
5901;DHT22;2976;49.764;9.796;2023-06-14T07:53:02;21.30;71.90
5901;DHT22;2976;49.764;9.796;2023-06-14T07:55:27;21.50;71.70
5901;DHT22;2976;49.764;9.796;2023-06-14T07:57:54;21.20;72.10
5901;DHT22;2976;49.764;9.796;2023-06-14T08:00:20;20.90;72.80
5901;DHT22;2976;49.764;9.796;2023-06-14T08:02:46;21.40;72.90
5901;DHT22;2976;49.764;9.796;2023-06-14T08:05:12;21.30;72.30
5901;DHT22;2976;49.764;9.796;2023-06-14T08:07:38;21.50;71.40
5901;DHT22;2976;49.764;9.796;2023-06-14T08:10:05;21.70;71.30
5901;DHT22;2976;49.764;9.796;2023-06-14T08:12:31;22.30;69.80
5901;DHT22;2976;49.764;9.796;2023-06-14T08:14:57;22.70;67.80
5901;DHT22;2976;49.764;9.796;2023-06-14T08:17:23;22.40;68.10
5901;DHT22;2976;49.764;9.796;2023-06-14T08:19:48;22.20;68.40
5901;DHT22;2976;49.764;9.796;2023-06-14T08:22:14;22.00;69.20
5901;DHT22;2976;49.764;9.796;2023-06-14T08:24:39;22.20;68.60
5901;DHT22;2976;49.764;9.796;2023-06-14T08:27:06;22.60;68.70
5901;DHT22;2976;49.764;9.796;2023-06-14T08:29:32;22.70;67.50
5901;DHT22;2976;49.764;9.796;2023-06-14T08:31:57;22.80;68.70
5901;DHT22;2976;49.764;9.796;2023-06-14T08:34:23;22.90;67.00
5901;DHT22;2976;49.764;9.796;2023-06-14T08:36:50;23.00;67.40
5901;DHT22;2976;49.764;9.796;2023-06-14T08:39:16;23.00;67.00
5901;DHT22;2976;49.764;9.796;2023-06-14T08:41:44;23.10;67.50
5901;DHT22;2976;49.764;9.796;2023-06-14T08:44:11;23.20;66.60
5901;DHT22;2976;49.764;9.796;2023-06-14T08:46:37;22.90;68.00
5901;DHT22;2976;49.764;9.796;2023-06-14T08:49:03;22.80;66.40
5901;DHT22;2976;49.764;9.796;2023-06-14T08:51:32;23.20;67.40
5901;DHT22;2976;49.764;9.796;2023-06-14T08:54:02;23.60;66.60
5901;DHT22;2976;49.764;9.796;2023-06-14T08:56:30;23.90;63.50
5901;DHT22;2976;49.764;9.796;2023-06-14T08:58:57;24.10;63.80
5901;DHT22;2976;49.764;9.796;2023-06-14T09:01:26;24.50;63.80
5901;DHT22;2976;49.764;9.796;2023-06-14T09:03:52;24.80;63.20
5901;DHT22;2976;49.764;9.796;2023-06-14T09:06:21;24.80;62.70
5901;DHT22;2976;49.764;9.796;2023-06-14T09:08:48;24.50;63.20
5901;DHT22;2976;49.764;9.796;2023-06-14T09:11:15;24.50;63.70
5901;DHT22;2976;49.764;9.796;2023-06-14T09:13:41;24.40;62.60
5901;DHT22;2976;49.764;9.796;2023-06-14T09:16:07;24.30;63.00
5901;DHT22;2976;49.764;9.796;2023-06-14T09:18:35;23.80;63.70
5901;DHT22;2976;49.764;9.796;2023-06-14T09:21:01;23.40;65.10
5901;DHT22;2976;49.764;9.796;2023-06-14T09:23:26;23.80;64.10
5901;DHT22;2976;49.764;9.796;2023-06-14T09:25:51;23.90;64.70
5901;DHT22;2976;49.764;9.796;2023-06-14T09:28:17;24.00;62.50
5901;DHT22;2976;49.764;9.796;2023-06-14T09:30:43;24.10;62.80
5901;DHT22;2976;49.764;9.796;2023-06-14T09:33:08;24.00;63.10
5901;DHT22;2976;49.764;9.796;2023-06-14T09:35:34;24.30;62.30
5901;DHT22;2976;49.764;9.796;2023-06-14T09:38:00;24.60;60.70
5901;DHT22;2976;49.764;9.796;2023-06-14T09:40:26;24.40;62.10
5901;DHT22;2976;49.764;9.796;2023-06-14T09:42:53;24.60;59.30
5901;DHT22;2976;49.764;9.796;2023-06-14T09:45:19;24.90;57.90
5901;DHT22;2976;49.764;9.796;2023-06-14T09:47:49;25.10;57.70
5901;DHT22;2976;49.764;9.796;2023-06-14T09:50:14;25.40;57.80
5901;DHT22;2976;49.764;9.796;2023-06-14T09:52:43;25.30;57.90
5901;DHT22;2976;49.764;9.796;2023-06-14T09:55:12;24.70;58.90
5901;DHT22;2976;49.764;9.796;2023-06-14T09:57:41;24.70;59.50
5901;DHT22;2976;49.764;9.796;2023-06-14T10:00:08;24.60;59.60
5901;DHT22;2976;49.764;9.796;2023-06-14T10:02:37;25.00;59.00
5901;DHT22;2976;49.764;9.796;2023-06-14T10:05:08;25.30;57.80
5901;DHT22;2976;49.764;9.796;2023-06-14T10:07:42;25.10;57.10
5901;DHT22;2976;49.764;9.796;2023-06-14T10:10:10;24.70;58.00
5901;DHT22;2976;49.764;9.796;2023-06-14T10:12:36;24.20;58.20
5901;DHT22;2976;49.764;9.796;2023-06-14T10:15:02;23.90;58.10
5901;DHT22;2976;49.764;9.796;2023-06-14T10:17:42;24.00;58.00
5901;DHT22;2976;49.764;9.796;2023-06-14T10:23:32;24.90;57.30
5901;DHT22;2976;49.764;9.796;2023-06-14T10:26:00;25.30;56.80
5901;DHT22;2976;49.764;9.796;2023-06-14T10:28:26;25.70;55.80
5901;DHT22;2976;49.764;9.796;2023-06-14T10:31:05;25.40;56.00
5901;DHT22;2976;49.764;9.796;2023-06-14T10:33:35;24.50;56.80
5901;DHT22;2976;49.764;9.796;2023-06-14T10:38:37;24.10;56.10
5901;DHT22;2976;49.764;9.796;2023-06-14T10:41:04;23.70;56.70
5901;DHT22;2976;49.764;9.796;2023-06-14T10:43:31;23.60;57.80
5901;DHT22;2976;49.764;9.796;2023-06-14T10:46:18;23.60;57.40
5901;DHT22;2976;49.764;9.796;2023-06-14T10:48:47;23.70;56.30
5901;DHT22;2976;49.764;9.796;2023-06-14T10:51:19;23.60;56.80
5901;DHT22;2976;49.764;9.796;2023-06-14T10:53:47;23.60;57.60
5901;DHT22;2976;49.764;9.796;2023-06-14T10:56:30;23.60;56.90
5901;DHT22;2976;49.764;9.796;2023-06-14T10:58:59;23.60;57.30
5901;DHT22;2976;49.764;9.796;2023-06-14T11:01:47;23.60;57.40
5901;DHT22;2976;49.764;9.796;2023-06-14T11:04:20;23.30;57.90
5901;DHT22;2976;49.764;9.796;2023-06-14T11:06:48;23.20;56.70
5901;DHT22;2976;49.764;9.796;2023-06-14T11:09:51;23.10;57.10
5901;DHT22;2976;49.764;9.796;2023-06-14T11:12:21;23.10;57.20
5901;DHT22;2976;49.764;9.796;2023-06-14T11:14:48;23.40;57.00
5901;DHT22;2976;49.764;9.796;2023-06-14T11:17:13;23.40;56.70
5901;DHT22;2976;49.764;9.796;2023-06-14T11:19:39;23.60;57.00
5901;DHT22;2976;49.764;9.796;2023-06-14T11:22:05;24.00;56.90
5901;DHT22;2976;49.764;9.796;2023-06-14T11:24:32;24.10;56.00
5901;DHT22;2976;49.764;9.796;2023-06-14T11:26:58;24.50;55.00
5901;DHT22;2976;49.764;9.796;2023-06-14T11:29:23;24.70;54.30
5901;DHT22;2976;49.764;9.796;2023-06-14T11:31:50;24.40;55.40
5901;DHT22;2976;49.764;9.796;2023-06-14T11:34:16;24.40;56.20
5901;DHT22;2976;49.764;9.796;2023-06-14T11:36:42;24.60;55.20
5901;DHT22;2976;49.764;9.796;2023-06-14T11:39:08;24.50;55.30
5901;DHT22;2976;49.764;9.796;2023-06-14T11:41:44;24.50;55.60
5901;DHT22;2976;49.764;9.796;2023-06-14T11:44:10;24.50;54.80
5901;DHT22;2976;49.764;9.796;2023-06-14T11:46:37;24.70;55.30
5901;DHT22;2976;49.764;9.796;2023-06-14T11:49:03;24.10;54.80
5901;DHT22;2976;49.764;9.796;2023-06-14T11:51:31;23.90;56.50
5901;DHT22;2976;49.764;9.796;2023-06-14T11:53:57;24.50;56.00
5901;DHT22;2976;49.764;9.796;2023-06-14T11:56:23;25.20;54.00
5901;DHT22;2976;49.764;9.796;2023-06-14T11:58:49;25.50;52.40
5901;DHT22;2976;49.764;9.796;2023-06-14T12:01:18;25.50;52.00
5901;DHT22;2976;49.764;9.796;2023-06-14T12:03:48;24.90;52.70
5901;DHT22;2976;49.764;9.796;2023-06-14T12:06:14;24.40;52.50
5901;DHT22;2976;49.764;9.796;2023-06-14T12:08:40;24.00;53.10
5901;DHT22;2976;49.764;9.796;2023-06-14T12:11:12;24.10;53.40
5901;DHT22;2976;49.764;9.796;2023-06-14T12:13:39;24.40;53.70
5901;DHT22;2976;49.764;9.796;2023-06-14T12:16:10;24.60;53.30
5901;DHT22;2976;49.764;9.796;2023-06-14T12:18:37;25.10;52.30
5901;DHT22;2976;49.764;9.796;2023-06-14T12:21:07;25.00;52.20
5901;DHT22;2976;49.764;9.796;2023-06-14T12:23:47;25.20;51.60
5901;DHT22;2976;49.764;9.796;2023-06-14T12:26:14;24.90;52.20
5901;DHT22;2976;49.764;9.796;2023-06-14T12:28:41;25.10;51.60
5901;DHT22;2976;49.764;9.796;2023-06-14T12:31:10;25.20;51.50
5901;DHT22;2976;49.764;9.796;2023-06-14T12:33:36;25.00;51.20
5901;DHT22;2976;49.764;9.796;2023-06-14T12:36:07;25.10;51.00
5901;DHT22;2976;49.764;9.796;2023-06-14T12:38:33;25.00;50.70
5901;DHT22;2976;49.764;9.796;2023-06-14T12:40:59;25.50;49.60
5901;DHT22;2976;49.764;9.796;2023-06-14T12:43:24;26.30;49.30
5901;DHT22;2976;49.764;9.796;2023-06-14T12:45:50;26.20;48.60
5901;DHT22;2976;49.764;9.796;2023-06-14T12:48:15;25.80;49.30
5901;DHT22;2976;49.764;9.796;2023-06-14T12:50:41;25.20;49.70
5901;DHT22;2976;49.764;9.796;2023-06-14T12:53:07;25.10;50.00
5901;DHT22;2976;49.764;9.796;2023-06-14T12:55:33;24.70;51.30
5901;DHT22;2976;49.764;9.796;2023-06-14T12:57:58;25.00;52.30
5901;DHT22;2976;49.764;9.796;2023-06-14T13:00:24;24.70;50.30
5901;DHT22;2976;49.764;9.796;2023-06-14T13:02:51;24.80;51.60
5901;DHT22;2976;49.764;9.796;2023-06-14T13:05:17;25.30;50.20
5901;DHT22;2976;49.764;9.796;2023-06-14T13:07:43;25.20;49.90
5901;DHT22;2976;49.764;9.796;2023-06-14T13:10:10;25.20;49.70
5901;DHT22;2976;49.764;9.796;2023-06-14T13:12:36;24.80;51.00
5901;DHT22;2976;49.764;9.796;2023-06-14T13:15:02;24.80;50.90
5901;DHT22;2976;49.764;9.796;2023-06-14T13:17:27;24.90;51.30
5901;DHT22;2976;49.764;9.796;2023-06-14T13:19:53;24.50;51.20
5901;DHT22;2976;49.764;9.796;2023-06-14T13:22:18;24.40;51.60
5901;DHT22;2976;49.764;9.796;2023-06-14T13:24:44;24.70;50.50
5901;DHT22;2976;49.764;9.796;2023-06-14T13:27:10;24.70;50.70
5901;DHT22;2976;49.764;9.796;2023-06-14T13:29:36;24.50;49.90
5901;DHT22;2976;49.764;9.796;2023-06-14T13:32:02;24.70;50.60
5901;DHT22;2976;49.764;9.796;2023-06-14T13:34:28;24.60;49.00
5901;DHT22;2976;49.764;9.796;2023-06-14T13:36:53;24.50;50.00
5901;DHT22;2976;49.764;9.796;2023-06-14T13:39:19;24.90;48.80
5901;DHT22;2976;49.764;9.796;2023-06-14T13:41:45;24.90;49.80
5901;DHT22;2976;49.764;9.796;2023-06-14T13:44:10;25.60;50.30
5901;DHT22;2976;49.764;9.796;2023-06-14T13:46:39;26.00;49.20
5901;DHT22;2976;49.764;9.796;2023-06-14T13:49:05;26.60;48.00
5901;DHT22;2976;49.764;9.796;2023-06-14T13:51:31;26.30;47.30
5901;DHT22;2976;49.764;9.796;2023-06-14T13:53:56;25.80;47.20
5901;DHT22;2976;49.764;9.796;2023-06-14T13:56:22;25.30;47.60
5901;DHT22;2976;49.764;9.796;2023-06-14T13:58:49;25.10;48.70
5901;DHT22;2976;49.764;9.796;2023-06-14T14:01:16;25.30;49.10
5901;DHT22;2976;49.764;9.796;2023-06-14T14:03:43;25.00;48.50
5901;DHT22;2976;49.764;9.796;2023-06-14T14:06:10;24.70;48.60
5901;DHT22;2976;49.764;9.796;2023-06-14T14:08:36;24.70;47.80
5901;DHT22;2976;49.764;9.796;2023-06-14T14:11:01;24.70;48.30
5901;DHT22;2976;49.764;9.796;2023-06-14T14:13:27;24.60;48.80
5901;DHT22;2976;49.764;9.796;2023-06-14T14:15:53;24.50;48.80
5901;DHT22;2976;49.764;9.796;2023-06-14T14:18:19;24.60;49.40
5901;DHT22;2976;49.764;9.796;2023-06-14T14:20:46;24.50;48.40
5901;DHT22;2976;49.764;9.796;2023-06-14T14:23:12;25.00;49.20
5901;DHT22;2976;49.764;9.796;2023-06-14T14:25:37;25.60;47.80
5901;DHT22;2976;49.764;9.796;2023-06-14T14:28:03;25.60;47.90
5901;DHT22;2976;49.764;9.796;2023-06-14T14:30:28;25.30;49.40
5901;DHT22;2976;49.764;9.796;2023-06-14T14:32:54;25.70;49.20
5901;DHT22;2976;49.764;9.796;2023-06-14T14:35:20;26.30;46.30
5901;DHT22;2976;49.764;9.796;2023-06-14T14:37:45;26.20;46.10
5901;DHT22;2976;49.764;9.796;2023-06-14T14:40:11;25.80;46.90
5901;DHT22;2976;49.764;9.796;2023-06-14T14:42:37;25.60;47.40
5901;DHT22;2976;49.764;9.796;2023-06-14T14:45:03;25.20;47.80
5901;DHT22;2976;49.764;9.796;2023-06-14T14:47:28;25.10;47.50
5901;DHT22;2976;49.764;9.796;2023-06-14T14:49:54;25.20;47.80
5901;DHT22;2976;49.764;9.796;2023-06-14T14:52:19;25.40;48.50
5901;DHT22;2976;49.764;9.796;2023-06-14T14:54:45;25.50;47.70
5901;DHT22;2976;49.764;9.796;2023-06-14T14:57:10;25.60;47.10
5901;DHT22;2976;49.764;9.796;2023-06-14T14:59:36;25.90;47.00
5901;DHT22;2976;49.764;9.796;2023-06-14T15:02:02;25.70;46.80
5901;DHT22;2976;49.764;9.796;2023-06-14T15:04:28;25.70;47.00
5901;DHT22;2976;49.764;9.796;2023-06-14T15:06:53;25.50;47.10
5901;DHT22;2976;49.764;9.796;2023-06-14T15:09:19;25.60;46.90
5901;DHT22;2976;49.764;9.796;2023-06-14T15:11:44;25.30;47.20
5901;DHT22;2976;49.764;9.796;2023-06-14T15:14:10;25.30;47.40
5901;DHT22;2976;49.764;9.796;2023-06-14T15:16:36;25.30;46.10
5901;DHT22;2976;49.764;9.796;2023-06-14T15:19:01;25.60;47.00
5901;DHT22;2976;49.764;9.796;2023-06-14T15:21:27;25.90;44.90
5901;DHT22;2976;49.764;9.796;2023-06-14T15:23:52;25.80;45.40
5901;DHT22;2976;49.764;9.796;2023-06-14T15:26:19;25.50;45.00
5901;DHT22;2976;49.764;9.796;2023-06-14T15:28:45;25.70;45.60
5901;DHT22;2976;49.764;9.796;2023-06-14T15:31:10;25.90;44.70
5901;DHT22;2976;49.764;9.796;2023-06-14T15:33:36;25.80;46.70
5901;DHT22;2976;49.764;9.796;2023-06-14T15:36:01;25.40;45.90
5901;DHT22;2976;49.764;9.796;2023-06-14T15:38:28;25.00;46.30
5901;DHT22;2976;49.764;9.796;2023-06-14T15:40:53;24.70;46.50
5901;DHT22;2976;49.764;9.796;2023-06-14T15:43:19;24.70;46.70
5901;DHT22;2976;49.764;9.796;2023-06-14T15:45:44;24.70;46.90
5901;DHT22;2976;49.764;9.796;2023-06-14T15:48:10;24.40;46.80
5901;DHT22;2976;49.764;9.796;2023-06-14T15:50:36;24.20;47.50
5901;DHT22;2976;49.764;9.796;2023-06-14T15:53:02;24.20;46.80
5901;DHT22;2976;49.764;9.796;2023-06-14T15:55:27;24.30;47.60
5901;DHT22;2976;49.764;9.796;2023-06-14T15:57:53;24.30;47.40
5901;DHT22;2976;49.764;9.796;2023-06-14T16:00:18;24.50;47.80
5901;DHT22;2976;49.764;9.796;2023-06-14T16:02:44;24.70;47.90
5901;DHT22;2976;49.764;9.796;2023-06-14T16:05:11;24.70;47.40
5901;DHT22;2976;49.764;9.796;2023-06-14T16:07:37;25.00;46.60